| time (UTC) | temp F | wind direction | speed MPH | gust MPH | rain 1hr in | rain 24hr in | rain mn in | humidity % | barometer mb |
| 20260509041608 | 54 | 131 | 1.0 | 4.0 | 0.00 | 0.01 | 0.00 | 66 | 1006.0 |
| 20260509040041 | 53 | 131 | 1.0 | 3.0 | 0.00 | 0.01 | 0.00 | 68 | 1005.9 |
| 20260509034539 | 54 | 131 | 0.0 | 2.0 | 0.00 | 0.01 | 0.00 | 68 | 1005.9 |
| 20260509033039 | 54 | 131 | 0.0 | 2.0 | 0.00 | 0.01 | 0.00 | 66 | 1006.0 |
| 20260509031539 | 56 | 131 | 0.0 | 1.0 | 0.00 | 0.01 | 0.00 | 60 | 1005.9 |
| 20260509030038 | 58 | 131 | 0.0 | 2.0 | 0.00 | 0.01 | 0.00 | 55 | 1005.8 |
| 20260509024538 | 57 | 131 | 1.0 | 2.0 | 0.00 | 0.01 | 0.00 | 56 | 1005.7 |
| 20260509023041 | 56 | 131 | 0.0 | 2.0 | 0.00 | 0.01 | 0.00 | 61 | 1005.5 |
| 20260509021537 | 57 | 131 | 0.0 | 0.0 | 0.00 | 0.01 | 0.00 | 60 | 1005.4 |
| 20260509020045 | 59 | 131 | 0.0 | 0.0 | 0.00 | 0.01 | 0.00 | 57 | 1005.3 |
| 20260509014538 | 61 | 131 | 0.0 | 0.0 | 0.00 | 0.01 | 0.00 | 50 | 1005.1 |
| 20260509013042 | 63 | 131 | 0.0 | 2.0 | 0.00 | 0.01 | 0.00 | 45 | 1005.1 |
| 20260509011536 | 64 | 131 | 0.0 | 3.0 | 0.00 | 0.01 | 0.00 | 42 | 1005.0 |
| 20260509010039 | 65 | 131 | 1.0 | 4.0 | 0.00 | 0.01 | 0.00 | 41 | 1004.8 |
| 20260509004534 | 66 | 131 | 0.0 | 2.0 | 0.00 | 0.01 | 0.00 | 40 | 1004.8 |
| 20260509003032 | 66 | 131 | 0.0 | 5.0 | 0.00 | 0.01 | 0.00 | 40 | 1004.8 |
| 20260509001531 | 67 | 131 | 3.0 | 6.0 | 0.00 | 0.01 | 0.00 | 38 | 1004.7 |
| 20260509000031 | 67 | 131 | 4.0 | 8.0 | 0.00 | 0.01 | 0.00 | 39 | 1004.7 |
| 20260508234532 | 68 | 131 | 3.0 | 8.0 | 0.00 | 0.01 | 0.00 | 38 | 1004.6 |
| 20260508233029 | 68 | 131 | 2.0 | 7.0 | 0.00 | 0.01 | 0.00 | 36 | 1004.6 |
| 20260508231528 | 69 | 131 | 4.0 | 8.0 | 0.00 | 0.01 | 0.00 | 37 | 1004.7 |
| 20260508230038 | 68 | 131 | 2.0 | 6.0 | 0.00 | 0.01 | 0.00 | 37 | 1004.8 |
| 20260508224527 | 68 | 131 | 2.0 | 7.0 | 0.00 | 0.01 | 0.00 | 38 | 1004.7 |
| 20260508223028 | 68 | 131 | 3.0 | 8.0 | 0.00 | 0.01 | 0.00 | 39 | 1004.9 |
| 20260508221522 | 69 | 131 | 0.0 | 6.0 | 0.00 | 0.01 | 0.00 | 37 | 1005.0 |
| 20260508220025 | 68 | 131 | 0.0 | 7.0 | 0.00 | 0.01 | 0.00 | 39 | 1005.2 |
| 20260508214526 | 67 | 131 | 2.0 | 8.0 | 0.00 | 0.01 | 0.00 | 39 | 1005.3 |
| 20260508213016 | 67 | 131 | 2.0 | 5.0 | 0.00 | 0.01 | 0.00 | 39 | 1005.5 |
| 20260508211527 | 68 | 131 | 3.0 | 6.0 | 0.00 | 0.01 | 0.00 | 38 | 1005.6 |
| 20260508210010 | 66 | 131 | 0.0 | 4.0 | 0.00 | 0.01 | 0.00 | 41 | 1005.8 |
| 20260508204508 | 66 | 131 | 2.0 | 7.0 | 0.00 | 0.01 | 0.00 | 43 | 1006.0 |
| 20260508203006 | 66 | 131 | 0.0 | 5.0 | 0.00 | 0.01 | 0.00 | 42 | 1006.1 |
| 20260508201503 | 66 | 131 | 2.0 | 5.0 | 0.00 | 0.01 | 0.00 | 42 | 1006.2 |
| 20260508200002 | 66 | 131 | 1.0 | 7.0 | 0.00 | 0.01 | 0.00 | 43 | 1006.5 |
| 20260508194558 | 66 | 131 | 0.0 | 5.0 | 0.00 | 0.01 | 0.00 | 42 | 1006.8 |
| 20260508193135 | 64 | 131 | 3.0 | 8.0 | 0.00 | 0.01 | 0.00 | 42 | 1007.0 |
| 20260508191552 | 64 | 131 | 4.0 | 7.0 | 0.00 | 0.01 | 0.00 | 44 | 1007.1 |
| 20260508190053 | 64 | 131 | 1.0 | 8.0 | 0.00 | 0.01 | 0.00 | 44 | 1007.3 |
| 20260508184549 | 64 | 131 | 3.0 | 8.0 | 0.00 | 0.01 | 0.00 | 46 | 1007.5 |
| 20260508183104 | 63 | 131 | 0.0 | 6.0 | 0.00 | 0.01 | 0.00 | 47 | 1007.8 |
| 20260508181552 | 62 | 131 | 1.0 | 5.0 | 0.00 | 0.01 | 0.00 | 48 | 1008.0 |
| 20260508180041 | 62 | 131 | 3.0 | 9.0 | 0.00 | 0.01 | 0.00 | 49 | 1008.2 |
| 20260508174536 | 61 | 131 | 0.0 | 6.0 | 0.00 | 0.01 | 0.00 | 52 | 1008.3 |
| 20260508173035 | 60 | 131 | 0.0 | 8.0 | 0.00 | 0.01 | 0.00 | 52 | 1008.4 |
| 20260508171533 | 59 | 131 | 1.0 | 6.0 | 0.00 | 0.01 | 0.00 | 53 | 1008.7 |
| 20260508170031 | 59 | 131 | 2.0 | 7.0 | 0.00 | 0.01 | 0.00 | 52 | 1008.6 |
| 20260508164530 | 59 | 131 | 4.0 | 9.0 | 0.00 | 0.01 | 0.00 | 52 | 1008.7 |
| 20260508163028 | 58 | 131 | 2.0 | 7.0 | 0.00 | 0.01 | 0.00 | 54 | 1008.6 |
| 20260508161526 | 58 | 131 | 3.0 | 7.0 | 0.00 | 0.01 | 0.00 | 55 | 1008.7 |
| 20260508160022 | 57 | 131 | 1.0 | 5.0 | 0.00 | 0.01 | 0.00 | 60 | 1008.7 |
| 20260508154540 | 56 | 131 | 2.0 | 7.0 | 0.00 | 0.01 | 0.00 | 63 | 1008.7 |
| 20260508153021 | 56 | 131 | 4.0 | 9.0 | 0.00 | 0.01 | 0.00 | 65 | 1008.7 |
| 20260508151522 | 55 | 131 | 2.0 | 6.0 | 0.00 | 0.01 | 0.00 | 71 | 1008.5 |
| 20260508150018 | 53 | 131 | 4.0 | 7.0 | 0.00 | 0.01 | 0.00 | 73 | 1008.6 |
| 20260508144518 | 56 | 131 | 3.0 | 6.0 | 0.00 | 0.01 | 0.00 | 68 | 1008.2 |
| 20260508143016 | 56 | 131 | 1.0 | 4.0 | 0.00 | 0.01 | 0.00 | 70 | 1008.6 |
| 20260508141535 | 54 | 131 | 1.0 | 4.0 | 0.00 | 0.01 | 0.00 | 76 | 1008.7 |
| 20260508140006 | 51 | 131 | 0.0 | 4.0 | 0.00 | 0.01 | 0.00 | 83 | 1009.0 |
| 20260508134508 | 48 | 131 | 1.0 | 4.0 | 0.00 | 0.01 | 0.00 | 83 | 1009.2 |
| 20260508133005 | 46 | 131 | 1.0 | 5.0 | 0.00 | 0.01 | 0.00 | 87 | 1009.4 |
| 20260508131501 | 45 | 131 | 0.0 | 2.0 | 0.00 | 0.01 | 0.00 | 87 | 1009.4 |
| 20260508130100 | 45 | 131 | 0.0 | 2.0 | 0.00 | 0.01 | 0.00 | 86 | 1009.5 |
| 20260508124604 | 45 | 131 | 0.0 | 3.0 | 0.00 | 0.01 | 0.00 | 86 | 1009.3 |
| 20260508123058 | 45 | 131 | 0.0 | 0.0 | 0.00 | 0.01 | 0.00 | 85 | 1009.5 |
| 20260508121558 | 45 | 131 | 0.0 | 0.0 | 0.00 | 0.01 | 0.00 | 84 | 1009.5 |
| 20260508120059 | 46 | 131 | 0.0 | 6.0 | 0.00 | 0.01 | 0.00 | 85 | 1009.4 |
| 20260508114557 | 44 | 131 | 0.0 | 3.0 | 0.00 | 0.01 | 0.00 | 91 | 1009.4 |
| 20260508113051 | 41 | 131 | 0.0 | 1.0 | 0.00 | 0.01 | 0.00 | 89 | 1008.5 |
| 20260508111554 | 42 | 131 | 0.0 | 1.0 | 0.00 | 0.01 | 0.00 | 85 | 1008.4 |
| 20260508110050 | 44 | 131 | 0.0 | 0.0 | 0.00 | 0.01 | 0.00 | 85 | 1008.5 |
| 20260508104550 | 44 | 131 | 0.0 | 3.0 | 0.00 | 0.01 | 0.00 | 86 | 1008.4 |
| 20260508103052 | 44 | 131 | 1.0 | 6.0 | 0.00 | 0.01 | 0.00 | 89 | 1008.4 |
| 20260508101548 | 43 | 131 | 0.0 | 4.0 | 0.00 | 0.01 | 0.00 | 89 | 1008.3 |
| 20260508100104 | 42 | 131 | 0.0 | 0.0 | 0.00 | 0.01 | 0.00 | 90 | 1007.9 |
| 20260508094556 | 42 | 131 | 0.0 | 1.0 | 0.00 | 0.01 | 0.00 | 88 | 1007.6 |
| 20260508093045 | 42 | 131 | 0.0 | 2.0 | 0.00 | 0.01 | 0.00 | 89 | 1007.3 |
| 20260508091546 | 41 | 131 | 0.0 | 2.0 | 0.00 | 0.01 | 0.00 | 90 | 1007.1 |
| 20260508090106 | 41 | 131 | 0.0 | 1.0 | 0.00 | 0.01 | 0.00 | 89 | 1007.3 |
| 20260508084544 | 42 | 131 | 0.0 | 0.0 | 0.00 | 0.01 | 0.00 | 89 | 1007.6 |
| 20260508083038 | 42 | 131 | 0.0 | 0.0 | 0.00 | 0.01 | 0.00 | 87 | 1007.9 |
| 20260508081543 | 43 | 131 | 0.0 | 1.0 | 0.00 | 0.01 | 0.00 | 87 | 1007.9 |
| 20260508080031 | 43 | 131 | 0.0 | 2.0 | 0.00 | 0.01 | 0.00 | 87 | 1008.3 |
| 20260508074532 | 44 | 131 | 0.0 | 1.0 | 0.00 | 0.01 | 0.00 | 88 | 1008.5 |
| 20260508073029 | 44 | 131 | 0.0 | 0.0 | 0.00 | 0.01 | 0.00 | 86 | 1008.7 |
| 20260508071527 | 44 | 131 | 0.0 | 0.0 | 0.00 | 0.01 | 0.00 | 86 | 1008.5 |
| 20260508070023 | 45 | 131 | 0.0 | 0.0 | 0.00 | 0.01 | 0.00 | 87 | 1008.4 |
| 20260508064520 | 46 | 131 | 0.0 | 1.0 | 0.00 | 0.01 | 0.00 | 84 | 1008.3 |
| 20260508063018 | 46 | 131 | 0.0 | 1.0 | 0.00 | 0.01 | 0.00 | 84 | 1008.2 |
| 20260508061514 | 47 | 131 | 0.0 | 0.0 | 0.01 | 0.01 | 0.00 | 80 | 1008.1 |
| 20260508060010 | 49 | 131 | 0.0 | 3.0 | 0.01 | 0.01 | 0.00 | 77 | 1008.0 |
| 20260508054510 | 50 | 131 | 0.0 | 5.0 | 0.01 | 0.01 | 0.01 | 78 | 1007.9 |
| 20260508053011 | 50 | 131 | 1.0 | 4.0 | 0.01 | 0.01 | 0.01 | 80 | 1008.7 |
| 20260508051508 | 51 | 131 | 0.0 | 2.0 | 0.00 | 0.00 | 0.00 | 76 | 1009.5 |
| 20260508050007 | 51 | 131 | 0.0 | 0.0 | 0.00 | 0.00 | 0.00 | 73 | 1008.5 |
| 20260508044508 | 52 | 131 | 0.0 | 1.0 | 0.00 | 0.00 | 0.00 | 70 | 1008.5 |
| 20260508043006 | 53 | 131 | 0.0 | 0.0 | 0.00 | 0.00 | 0.00 | 66 | 1008.2 |